< Cyclone 198805 1989 Season Cyclone 198902 >
Cyclone 198901 (ILONA)
General InformationDetailed Track InformationTrack Information on Google MapsList of All Images || ResourceGoogle EarthGE AnimationAtom FeedGeoJSON
Detalied Best Track Wind (Time Zone = UTC)
Year Month Day Hour Lat. Long. Wind (kt) Gust (kt) Direc. of Major Storm Axis Radius of Major Storm Axis (nm) Radius of Minor Storm Axis (nm) Direc. of Major Gale Axis Radius of Major Gale Axis (nm) Radius of Minor Gale Axis (nm) Image
1988 12 12 00 -11.9 128.3 25 -1 symmetric - - symmetric - - Image
1988 12 12 03 -12.5 127.6 25 -1 symmetric - - symmetric - - Image
1988 12 12 06 -13.1 126.8 29 -1 symmetric - - symmetric - - Image
1988 12 12 09 -13.7 126.3 29 -1 symmetric - - symmetric - - Image
1988 12 12 12 -14.4 125.7 31 -1 symmetric - - symmetric - - Image
1988 12 12 15 -14.9 124.7 31 -1 symmetric - - symmetric - - Image
1988 12 12 18 -15.2 124.1 31 -1 symmetric - - symmetric - - Image
1988 12 13 00 -15.8 122.8 33 -1 symmetric - - symmetric - - Image
1988 12 13 06 -16.2 121.6 35 -1 symmetric - - symmetric - - Image
1988 12 13 12 -16.6 120.6 35 -1 symmetric - - symmetric - - Image
1988 12 13 18 -16.6 119.7 37 -1 symmetric - - symmetric - - Image
1988 12 14 00 -16.4 118.5 39 -1 symmetric - - symmetric - - Image
1988 12 14 06 -16.2 117.3 41 -1 symmetric - - symmetric - - Image
1988 12 14 12 -16.1 116.6 43 -1 symmetric - - symmetric - - Image
1988 12 14 18 -16.0 116.2 49 -1 symmetric - - symmetric - - Image
1988 12 15 00 -16.0 115.8 53 -1 symmetric - - symmetric - - Image
1988 12 15 03 -15.9 115.6 56 -1 symmetric - - symmetric - - Image
1988 12 15 06 -16.1 115.5 58 -1 symmetric - - symmetric - - Image
1988 12 15 09 -16.1 115.4 62 -1 symmetric - - symmetric - - Image
1988 12 15 12 -16.2 115.3 64 -1 symmetric - - symmetric - - Image
1988 12 15 15 -16.3 115.3 64 -1 symmetric - - symmetric - - Image
1988 12 15 18 -16.4 115.2 64 -1 symmetric - - symmetric - - Image
1988 12 16 00 -16.7 115.2 66 -1 symmetric - - symmetric - - Image
1988 12 16 06 -16.9 115.2 68 -1 symmetric - - symmetric - - Image
1988 12 16 12 -17.3 115.3 70 -1 symmetric - - symmetric - - Image
1988 12 16 18 -17.7 115.3 70 -1 symmetric - - symmetric - - Image
1988 12 17 00 -18.2 115.4 72 -1 symmetric - - symmetric - - Image
1988 12 17 06 -19.1 115.7 72 -1 symmetric - - symmetric - - Image
1988 12 17 12 -20.1 116.0 72 -1 symmetric - - symmetric - - Image
1988 12 17 15 -20.8 116.0 72 -1 symmetric - - symmetric - - Image
1988 12 17 18 -21.5 116.2 68 -1 symmetric - - symmetric - - Image
1988 12 17 21 -22.2 116.4 64 -1 symmetric - - symmetric - - Image
1988 12 18 00 -23.1 116.8 58 -1 symmetric - - symmetric - - Image
1988 12 18 06 -24.6 117.7 47 -1 symmetric - - symmetric - - Image
1988 12 18 12 -25.8 119.1 35 -1 symmetric - - symmetric - - Image
1988 12 18 18 -26.3 120.3 33 -1 symmetric - - symmetric - - Image
1988 12 19 00 -26.3 121.8 29 -1 symmetric - - symmetric - - Image
1988 12 19 06 -26.5 123.7 29 -1 symmetric - - symmetric - - Image
1988 12 19 12 -26.6 125.7 27 -1 symmetric - - symmetric - - Image
1988 12 19 16 -26.6 127.0 25 -1 symmetric - - symmetric - - Image
< Cyclone 198805 1989 Season Cyclone 198902 >

Help